Louisville, Nebraska
Current Conditions -  °F | °C
As of 8:15 PM on Monday 22 Dec 2014 (Local Time) from KPMV Reporting Station
Drizzle Drizzle  
Wind Chill: 30°   Ceiling: 1400
Heat Index: 39°   Visibility: 10mi
Dew Point: 37°   Wind: 16mph
Humidity: 92%   Direction: 290°WNW
Pressure: 29.46"   Gusts: 21mph
Location:  41°N, 96.16°W
Report Text: KPMV 230215Z AUTO 29014G18KT 10SM DZ SCT008 OVC014 04/03 A2946 RMK AO2 T00370025
Loading
Personal Weather Stations






























Interactive Weather Map New forecast layout! Learn more

10-Day Weather Forecast

Advertisements
Track Severe Weather on mobile